createdAt,value
2022-08-09T00:00:00.919Z,4.05
2022-08-09T00:02:33.773Z,4.70
2022-08-09T00:06:12.047Z,4.22
2022-08-09T00:07:52.318Z,4.13
2022-08-09T00:10:24.615Z,4.70
2022-08-09T00:12:53.336Z,4.80
2022-08-09T00:15:35.377Z,4.50
2022-08-09T00:18:12.385Z,4.72
2022-08-09T00:20:50.132Z,4.60
2022-08-09T00:23:56.194Z,4.15
2022-08-09T00:26:11.100Z,4.03
2022-08-09T00:28:40.580Z,4.03
2022-08-09T00:31:57.109Z,4.05
2022-08-09T00:33:57.658Z,4.47
2022-08-09T00:36:27.256Z,3.92
2022-08-09T00:38:58.159Z,3.63
2022-08-09T00:44:10.391Z,4.00
2022-08-09T00:44:25.723Z,3.65
2022-08-09T00:46:57.647Z,3.63
2022-08-09T00:49:33.954Z,4.15
2022-08-09T00:52:05.927Z,3.30
2022-08-09T00:54:35.994Z,3.83
2022-08-09T00:57:10.656Z,3.28
2022-08-09T00:59:40.995Z,4.20
2022-08-09T01:04:50.819Z,3.10
2022-08-09T01:07:38.148Z,3.25
2022-08-09T01:10:21.417Z,3.17
2022-08-09T01:13:04.456Z,3.58
2022-08-09T01:15:51.645Z,3.17
2022-08-09T01:21:11.820Z,2.75
2022-08-09T01:24:00.658Z,2.38
2022-08-09T01:26:55.828Z,3.10
2022-08-09T01:29:41.088Z,2.90
2022-08-09T01:32:29.899Z,2.42
2022-08-09T01:35:06.829Z,2.45
2022-08-09T01:38:08.347Z,2.90
2022-08-09T01:40:37.686Z,3.03
2022-08-09T01:43:08.467Z,2.40
2022-08-09T01:45:44.609Z,2.97
2022-08-09T01:48:16.362Z,2.53
2022-08-09T01:50:48.291Z,2.42
2022-08-09T01:53:20.159Z,2.83
2022-08-09T01:55:50.814Z,2.75
2022-08-09T01:58:24.096Z,2.53
2022-08-09T02:00:54.457Z,2.40
2022-08-09T02:03:24.521Z,2.83
2022-08-09T02:06:03.561Z,2.67
2022-08-09T02:08:41.054Z,2.13
2022-08-09T02:11:23.669Z,2.53
2022-08-09T02:14:06.377Z,2.53
2022-08-09T02:16:53.008Z,2.40
2022-08-09T02:19:38.805Z,2.22
2022-08-09T02:22:12.775Z,2.10
2022-08-09T02:24:44.407Z,2.63
2022-08-09T02:27:21.180Z,2.15
2022-08-09T02:30:12.010Z,2.40
2022-08-09T02:32:45.574Z,2.05
2022-08-09T02:35:26.121Z,2.50
2022-08-09T02:38:10.641Z,2.65
2022-08-09T02:40:50.212Z,2.20
2022-08-09T02:43:21.155Z,2.03
2022-08-09T02:45:52.791Z,2.17
2022-08-09T02:48:30.770Z,2.30
2022-08-09T02:51:02.702Z,2.30
2022-08-09T02:53:36.015Z,2.25
2022-08-09T02:56:05.882Z,2.42
2022-08-09T02:58:38.079Z,2.42
2022-08-09T03:01:10.870Z,2.20
2022-08-09T03:04:17.258Z,2.28
2022-08-09T03:06:33.877Z,1.92
2022-08-09T03:09:05.215Z,2.17
2022-08-09T03:12:05.618Z,2.25
2022-08-09T03:14:28.182Z,1.88
2022-08-09T03:16:59.560Z,1.88
2022-08-09T03:19:58.027Z,2.28
2022-08-09T03:22:30.007Z,2.10
2022-08-09T03:25:21.972Z,2.08
2022-08-09T03:27:50.178Z,1.90
2022-08-09T03:30:29.268Z,2.00
2022-08-09T03:33:13.058Z,1.77
2022-08-09T03:36:14.055Z,1.77
2022-08-09T03:38:35.267Z,1.90
2022-08-09T03:41:05.404Z,1.90
2022-08-09T03:43:33.755Z,2.08
2022-08-09T03:46:19.873Z,1.73
2022-08-09T03:48:53.886Z,2.20
2022-08-09T03:51:56.287Z,2.03
2022-08-09T03:54:11.760Z,1.67
2022-08-09T03:56:41.628Z,1.80
2022-08-09T03:59:17.083Z,1.60
2022-08-09T04:01:50.964Z,2.05
2022-08-09T04:04:20.827Z,1.63
2022-08-09T04:06:52.793Z,1.45
2022-08-09T04:09:47.540Z,1.50
2022-08-09T04:12:34.621Z,1.67
2022-08-09T04:15:17.073Z,1.70
2022-08-09T04:17:49.832Z,1.50
2022-08-09T04:20:21.198Z,1.73
2022-08-09T04:22:51.395Z,1.38
2022-08-09T04:25:19.319Z,1.38
2022-08-09T04:27:49.016Z,1.92
2022-08-09T04:30:23.359Z,1.70
2022-08-09T04:32:54.375Z,1.45
2022-08-09T04:35:23.745Z,1.70
2022-08-09T04:37:51.874Z,1.63
2022-08-09T04:40:35.831Z,1.50
2022-08-09T04:43:05.539Z,1.27
2022-08-09T04:45:36.106Z,1.30
2022-08-09T04:48:21.439Z,1.83
2022-08-09T04:50:53.413Z,1.60
2022-08-09T04:53:21.370Z,1.80
2022-08-09T04:55:58.883Z,1.67
2022-08-09T04:58:29.762Z,1.55
2022-08-09T05:01:00.385Z,1.48
2022-08-09T05:03:43.334Z,1.33
2022-08-09T05:06:21.962Z,1.73
2022-08-09T05:09:00.262Z,1.65
2022-08-09T05:11:30.545Z,1.50
2022-08-09T05:14:06.238Z,1.70
2022-08-09T05:16:43.802Z,1.20
2022-08-09T05:19:25.637Z,1.55
2022-08-09T05:21:56.545Z,1.40
2022-08-09T05:24:25.018Z,1.30
2022-08-09T05:26:53.314Z,1.75
2022-08-09T05:29:24.525Z,1.40
2022-08-09T05:32:01.122Z,1.60
2022-08-09T05:34:31.708Z,1.27
2022-08-09T05:37:06.118Z,1.50
2022-08-09T05:39:36.533Z,1.58
2022-08-09T05:42:17.629Z,1.40
2022-08-09T05:44:51.484Z,1.30
2022-08-09T05:47:21.686Z,1.42
2022-08-09T05:50:31.069Z,1.30
2022-08-09T05:52:42.286Z,1.38
2022-08-09T05:55:20.640Z,1.23
2022-08-09T05:57:50.956Z,1.40
2022-08-09T06:00:24.491Z,1.90
2022-08-09T06:02:54.140Z,2.85
2022-08-09T06:05:30.766Z,2.17
2022-08-09T06:08:19.483Z,2.42
2022-08-09T06:10:53.908Z,2.72
2022-08-09T06:13:22.422Z,2.25
2022-08-09T06:15:52.162Z,3.35
2022-08-09T06:18:23.887Z,2.80
2022-08-09T06:20:56.472Z,3.00
2022-08-09T06:23:55.745Z,3.03
2022-08-09T06:26:20.047Z,2.78
2022-08-09T06:28:50.136Z,2.80
2022-08-09T06:31:31.466Z,3.40
2022-08-09T06:34:09.422Z,3.15
2022-08-09T06:36:37.529Z,3.25
2022-08-09T06:39:13.586Z,4.15
2022-08-09T06:42:07.647Z,2.88
2022-08-09T06:44:30.831Z,2.85
2022-08-09T06:46:58.766Z,3.10
2022-08-09T06:49:44.819Z,3.28
2022-08-09T06:52:15.750Z,3.42
2022-08-09T06:54:45.442Z,3.15
2022-08-09T06:57:14.046Z,2.42
2022-08-09T07:00:51.877Z,3.15
2022-08-09T07:02:32.182Z,3.33
2022-08-09T07:05:00.630Z,3.10
2022-08-09T07:07:58.929Z,2.70
2022-08-09T07:10:29.457Z,3.38
2022-08-09T07:13:00.501Z,2.10
2022-08-09T07:15:53.995Z,1.80
2022-08-09T07:18:34.932Z,1.65
2022-08-09T07:21:08.033Z,1.63
2022-08-09T07:23:36.497Z,2.20
2022-08-09T07:26:25.996Z,1.80
2022-08-09T07:29:08.473Z,1.60
2022-08-09T07:31:45.519Z,2.28
2022-08-09T07:34:20.108Z,1.90
2022-08-09T07:36:49.645Z,1.90
2022-08-09T07:39:20.396Z,2.05
2022-08-09T07:42:08.251Z,2.22
2022-08-09T07:44:51.574Z,2.25
2022-08-09T07:47:23.161Z,2.22
2022-08-09T07:50:04.603Z,1.80
2022-08-09T07:52:35.792Z,2.17
2022-08-09T07:55:09.631Z,1.90
2022-08-09T07:57:46.998Z,2.47
2022-08-09T08:00:20.515Z,2.05
2022-08-09T08:03:08.145Z,1.92
2022-08-09T08:05:54.232Z,2.58
2022-08-09T08:09:02.324Z,1.88
2022-08-09T08:12:09.795Z,2.33
2022-08-09T08:14:04.845Z,1.60
2022-08-09T08:16:34.863Z,2.10
2022-08-09T08:19:04.565Z,1.63
2022-08-09T08:21:33.247Z,2.08
2022-08-09T08:24:11.897Z,2.00
2022-08-09T08:26:56.045Z,2.17
2022-08-09T08:29:27.904Z,2.20
2022-08-09T08:32:05.504Z,1.70
2022-08-09T08:34:34.908Z,1.80
2022-08-09T08:37:05.131Z,1.85
2022-08-09T08:39:40.037Z,2.15
2022-08-09T08:42:12.513Z,1.92
2022-08-09T08:44:43.871Z,1.60
2022-08-09T08:47:15.513Z,2.10
2022-08-09T08:49:47.659Z,1.95
2022-08-09T08:55:08.069Z,1.92
2022-08-09T08:57:37.436Z,2.13
2022-08-09T09:00:17.217Z,1.95
2022-08-09T09:02:52.651Z,2.30
2022-08-09T09:05:57.850Z,1.70
2022-08-09T09:08:30.121Z,2.00
2022-08-09T09:11:02.186Z,1.83
2022-08-09T09:13:42.198Z,1.67
2022-08-09T09:16:30.981Z,1.67
2022-08-09T09:22:02.622Z,1.95
2022-08-09T09:24:34.690Z,1.85
2022-08-09T09:27:04.657Z,1.60
2022-08-09T09:29:58.160Z,1.90
2022-08-09T09:32:34.575Z,1.73
2022-08-09T09:35:09.918Z,1.33
2022-08-09T09:37:40.247Z,1.85
2022-08-09T09:40:11.560Z,1.60
2022-08-09T09:42:45.971Z,1.55
2022-08-09T09:45:26.199Z,1.60
2022-08-09T09:47:59.775Z,1.65
2022-08-09T09:50:49.240Z,2.58
2022-08-09T09:53:43.776Z,1.90
2022-08-09T09:56:30.933Z,1.50
2022-08-09T09:59:00.128Z,1.90
2022-08-09T10:01:31.244Z,1.83
2022-08-09T10:04:16.035Z,1.55
2022-08-09T10:06:51.897Z,1.48
2022-08-09T10:09:24.090Z,1.63
2022-08-09T10:12:12.965Z,1.27
2022-08-09T10:14:51.670Z,1.60
2022-08-09T10:17:39.004Z,1.55
2022-08-09T10:20:35.600Z,1.50
2022-08-09T10:23:20.017Z,1.58
2022-08-09T10:26:04.219Z,1.67
2022-08-09T10:28:37.604Z,1.75
2022-08-09T10:34:10.692Z,1.92
2022-08-09T10:36:45.684Z,1.50
2022-08-09T10:39:19.201Z,1.48
2022-08-09T10:41:48.440Z,1.50
2022-08-09T10:44:19.594Z,1.73
2022-08-09T10:48:11.905Z,1.90
2022-08-09T10:50:21.028Z,1.30
2022-08-09T10:53:15.135Z,1.65
2022-08-09T10:55:58.668Z,1.58
2022-08-09T10:58:33.676Z,1.90
2022-08-09T11:03:14.429Z,1.83
2022-08-09T11:04:28.081Z,1.65
2022-08-09T11:07:58.350Z,1.83
2022-08-09T11:11:08.468Z,1.35
2022-08-09T11:13:50.847Z,1.35
2022-08-09T11:16:41.099Z,1.83
2022-08-09T11:19:11.219Z,1.75
2022-08-09T11:22:05.219Z,1.67
2022-08-09T11:25:05.407Z,1.70
2022-08-09T11:28:05.275Z,1.67
2022-08-09T11:30:37.729Z,1.52
2022-08-09T11:33:10.640Z,1.88
2022-08-09T11:35:49.480Z,1.48
2022-08-09T11:38:22.314Z,1.70
2022-08-09T11:40:57.406Z,1.50
2022-08-09T11:43:42.077Z,1.52
2022-08-09T11:46:10.571Z,1.60
2022-08-09T11:48:49.278Z,1.90
2022-08-09T11:52:56.990Z,1.60
2022-08-09T11:54:28.060Z,1.60
2022-08-09T11:57:47.649Z,1.60
2022-08-09T12:00:31.016Z,1.50
2022-08-09T12:03:54.769Z,1.90
2022-08-09T12:05:51.935Z,1.38
2022-08-09T12:08:22.922Z,1.90
2022-08-09T12:10:54.542Z,1.73
2022-08-09T12:14:07.632Z,1.55
2022-08-09T12:16:30.827Z,1.50
2022-08-09T12:19:09.600Z,1.50
2022-08-09T12:21:50.771Z,1.67
2022-08-09T12:24:24.097Z,1.33
2022-08-09T12:29:15.411Z,1.48
2022-08-09T12:30:01.898Z,1.65
2022-08-09T12:32:44.518Z,1.70
2022-08-09T12:35:19.183Z,1.33
2022-08-09T12:37:52.336Z,1.60
2022-08-09T12:40:23.268Z,1.40
2022-08-09T12:42:53.357Z,1.83
2022-08-09T12:45:34.380Z,1.50
2022-08-09T12:48:20.418Z,1.52
2022-08-09T12:50:58.091Z,1.80
2022-08-09T12:53:37.081Z,1.70
2022-08-09T12:56:12.653Z,1.60
2022-08-09T12:59:04.475Z,1.30
2022-08-09T13:01:32.992Z,1.63
2022-08-09T13:04:05.382Z,1.40
2022-08-09T13:06:42.037Z,1.92
2022-08-09T13:09:12.878Z,1.40
2022-08-09T13:11:43.163Z,2.17
2022-08-09T13:14:41.766Z,1.83
2022-08-09T13:17:02.836Z,1.65
2022-08-09T13:20:09.747Z,1.60
2022-08-09T13:22:37.159Z,1.65
2022-08-09T13:25:14.270Z,1.80
2022-08-09T13:27:48.953Z,1.88
2022-08-09T13:30:48.706Z,1.80
2022-08-09T13:33:17.079Z,2.17
2022-08-09T13:36:41.769Z,2.00
2022-08-09T13:38:57.771Z,1.85
2022-08-09T13:41:57.339Z,1.90
2022-08-09T13:44:16.933Z,2.53
2022-08-09T13:47:27.405Z,1.90
2022-08-09T13:49:39.626Z,1.98
2022-08-09T13:52:30.795Z,1.83
2022-08-09T13:55:04.542Z,1.77
2022-08-09T13:57:39.436Z,1.93
2022-08-09T14:00:12.532Z,2.05
2022-08-09T14:03:03.093Z,1.80
2022-08-09T14:05:58.212Z,1.95
2022-08-09T14:08:20.798Z,2.03
2022-08-09T14:10:51.930Z,2.05
2022-08-09T14:14:15.175Z,1.73
2022-08-09T14:16:15.552Z,1.90
2022-08-09T14:18:49.572Z,2.08
2022-08-09T14:21:20.333Z,1.90
2022-08-09T14:23:55.087Z,1.85
2022-08-09T14:26:31.963Z,2.13
2022-08-09T14:29:02.788Z,1.80
2022-08-09T14:31:36.363Z,1.88
2022-08-09T14:34:32.323Z,2.30
2022-08-09T14:37:02.736Z,2.10
2022-08-09T14:39:39.957Z,2.03
2022-08-09T14:42:30.502Z,2.10
2022-08-09T14:46:38.915Z,1.90
2022-08-09T14:47:57.257Z,1.83
2022-08-09T14:50:27.566Z,1.92
2022-08-09T14:52:55.766Z,1.92
2022-08-09T14:55:25.257Z,2.10
2022-08-09T14:57:57.377Z,2.00
2022-08-09T15:00:27.068Z,1.88
2022-08-09T15:02:58.447Z,2.00
2022-08-09T15:05:28.453Z,1.80
2022-08-09T15:07:58.257Z,1.75
2022-08-09T15:10:28.810Z,1.60
2022-08-09T15:13:01.465Z,1.70
2022-08-09T15:15:34.488Z,2.22
2022-08-09T15:18:12.304Z,1.73
2022-08-09T15:21:54.743Z,1.65
2022-08-09T15:24:02.788Z,2.05
2022-08-09T15:26:31.206Z,2.00
2022-08-09T15:29:04.317Z,1.65
2022-08-09T15:31:41.257Z,1.80
2022-08-09T15:34:33.151Z,1.77
2022-08-09T15:37:00.999Z,2.92
2022-08-09T15:39:43.804Z,2.67
2022-08-09T15:42:21.793Z,3.65
2022-08-09T15:44:50.377Z,3.72
2022-08-09T15:47:22.500Z,4.95
2022-08-09T15:50:04.948Z,7.10
2022-08-09T15:52:35.376Z,8.63
2022-08-09T15:55:04.732Z,8.23
2022-08-09T15:57:44.187Z,8.13
2022-08-09T16:00:25.476Z,8.90
2022-08-09T16:02:56.817Z,9.65
2022-08-09T16:05:53.040Z,8.65
2022-08-09T16:08:30.528Z,7.65
2022-08-09T16:11:01.307Z,7.35
2022-08-09T16:14:03.621Z,8.35
2022-08-09T16:16:19.660Z,8.23
2022-08-09T16:18:47.768Z,7.25
2022-08-09T16:21:17.439Z,7.40
2022-08-09T16:23:54.798Z,8.40
2022-08-09T16:26:34.653Z,7.90
2022-08-09T16:29:11.331Z,7.95
2022-08-09T16:32:18.512Z,6.95
2022-08-09T16:34:29.587Z,6.47
2022-08-09T16:37:17.558Z,6.72
2022-08-09T16:40:00.465Z,7.13
2022-08-09T16:42:33.703Z,6.63
2022-08-09T16:45:03.201Z,7.20
2022-08-09T16:48:49.587Z,5.82
2022-08-09T16:50:29.208Z,6.13
2022-08-09T16:52:58.854Z,6.60
2022-08-09T16:55:26.910Z,6.45
2022-08-09T16:58:10.275Z,7.00
2022-08-09T17:00:42.755Z,5.70
2022-08-09T17:03:13.157Z,7.13
2022-08-09T17:06:08.686Z,5.43
2022-08-09T17:08:46.677Z,5.88
2022-08-09T17:11:40.133Z,5.50
2022-08-09T17:14:25.379Z,6.20
2022-08-09T17:17:00.160Z,6.75
2022-08-09T17:20:11.108Z,5.57
2022-08-09T17:22:23.902Z,6.50
2022-08-09T17:25:09.858Z,5.53
2022-08-09T17:27:48.811Z,6.10
2022-08-09T17:30:22.648Z,5.35
2022-08-09T17:32:57.549Z,5.28
2022-08-09T17:38:14.449Z,5.32
2022-08-09T17:40:47.326Z,5.18
2022-08-09T17:43:34.180Z,5.38
2022-08-09T17:46:06.073Z,6.50
2022-08-09T17:48:38.599Z,5.63
2022-08-09T17:51:17.534Z,5.18
2022-08-09T17:53:53.308Z,5.40
2022-08-09T17:56:27.604Z,5.45
2022-08-09T17:58:59.628Z,5.93
2022-08-09T18:01:57.806Z,4.90
2022-08-09T18:04:17.875Z,5.55
2022-08-09T18:06:49.960Z,4.55
2022-08-09T18:09:25.204Z,4.78
2022-08-09T18:12:17.200Z,4.70
2022-08-09T18:14:54.199Z,4.32
2022-08-09T18:17:27.664Z,4.25
2022-08-09T18:20:54.251Z,4.78
2022-08-09T18:23:04.903Z,4.95
2022-08-09T18:25:52.867Z,4.85
2022-08-09T18:30:34.531Z,4.68
2022-08-09T18:31:13.578Z,4.72
2022-08-09T18:33:43.280Z,4.35
2022-08-09T18:36:25.645Z,4.88
2022-08-09T18:39:02.720Z,4.80
2022-08-09T18:41:34.434Z,4.80
2022-08-09T18:44:13.625Z,4.03
2022-08-09T18:46:47.067Z,4.35
2022-08-09T18:49:21.044Z,4.90
2022-08-09T18:51:55.632Z,4.72
2022-08-09T18:54:29.871Z,3.88
2022-08-09T18:57:06.182Z,4.80
2022-08-09T18:59:37.393Z,4.50
2022-08-09T19:02:17.778Z,4.47
2022-08-09T19:04:48.036Z,4.10
2022-08-09T19:07:35.571Z,3.95
2022-08-09T19:10:14.393Z,4.18
2022-08-09T19:12:51.386Z,4.20
2022-08-09T19:15:34.203Z,3.85
2022-08-09T19:18:02.718Z,4.38
2022-08-09T19:20:39.060Z,3.70
2022-08-09T19:23:16.611Z,4.40
2022-08-09T19:26:02.051Z,3.78
2022-08-09T19:28:33.878Z,4.18
2022-08-09T19:31:07.836Z,3.83
2022-08-09T19:33:36.096Z,4.03
2022-08-09T19:36:04.256Z,5.00
2022-08-09T19:38:36.530Z,4.20
2022-08-09T19:41:08.391Z,3.85
2022-08-09T19:44:02.272Z,3.85
2022-08-09T19:46:34.995Z,4.15
2022-08-09T19:50:07.060Z,3.88
2022-08-09T19:51:55.474Z,3.45
2022-08-09T19:54:26.147Z,3.88
2022-08-09T19:56:54.548Z,3.90
2022-08-09T19:59:58.202Z,3.30
2022-08-09T20:04:06.948Z,3.63
2022-08-09T20:05:01.460Z,3.53
2022-08-09T20:07:33.916Z,4.20
2022-08-09T20:10:22.479Z,3.72
2022-08-09T20:13:02.330Z,3.97
2022-08-09T20:16:36.817Z,3.72
2022-08-09T20:18:19.682Z,3.65
2022-08-09T20:20:51.006Z,3.95
2022-08-09T20:23:21.050Z,3.38
2022-08-09T20:25:52.067Z,4.15
2022-08-09T20:28:27.608Z,1.98
2022-08-09T20:31:00.121Z,1.20
2022-08-09T20:33:41.314Z,1.00
2022-08-09T20:36:13.144Z,1.00
2022-08-09T20:41:34.813Z,1.05
2022-08-09T20:44:03.986Z,0.90
2022-08-09T20:46:44.760Z,0.80
2022-08-09T20:49:14.109Z,1.23
2022-08-09T20:51:45.054Z,1.48
2022-08-09T20:54:18.569Z,1.20
2022-08-09T20:56:49.699Z,1.08
2022-08-09T20:59:50.297Z,1.10
2022-08-09T21:02:11.540Z,1.48
2022-08-09T21:05:54.351Z,1.15
2022-08-09T21:07:38.562Z,1.23
2022-08-09T21:10:09.168Z,1.20
2022-08-09T21:15:34.267Z,1.83
2022-08-09T21:18:25.553Z,1.30
2022-08-09T21:20:51.382Z,1.13
2022-08-09T21:23:26.599Z,1.20
2022-08-09T21:26:10.830Z,1.13
2022-08-09T21:28:40.924Z,1.73
2022-08-09T21:34:12.134Z,1.30
2022-08-09T21:36:40.142Z,1.30
2022-08-09T21:39:28.261Z,1.10
2022-08-09T21:42:10.707Z,1.42
2022-08-09T21:44:42.599Z,1.00
2022-08-09T21:47:17.504Z,1.30
2022-08-09T21:49:48.048Z,1.13
2022-08-09T21:52:20.308Z,1.23
2022-08-09T21:54:56.987Z,1.20
2022-08-09T21:57:39.096Z,1.52
2022-08-09T22:00:25.269Z,1.20
2022-08-09T22:02:58.776Z,1.50
2022-08-09T22:05:33.652Z,1.40
2022-08-09T22:08:13.195Z,1.70
2022-08-09T22:11:50.167Z,1.30
2022-08-09T22:13:34.927Z,1.20
2022-08-09T22:16:07.463Z,1.23
2022-08-09T22:18:37.068Z,1.08
2022-08-09T22:21:09.886Z,1.33
2022-08-09T22:23:59.308Z,1.30
2022-08-09T22:26:35.499Z,1.27
2022-08-09T22:29:08.887Z,1.30
2022-08-09T22:31:50.235Z,1.42
2022-08-09T22:34:25.855Z,1.30
2022-08-09T22:36:54.572Z,1.40
2022-08-09T22:39:57.955Z,1.20
2022-08-09T22:42:16.298Z,1.30
2022-08-09T22:45:00.346Z,1.60
2022-08-09T22:48:18.407Z,1.13
2022-08-09T22:50:29.522Z,1.20
2022-08-09T22:52:58.503Z,1.60
2022-08-09T22:55:32.168Z,1.27
2022-08-09T22:58:07.693Z,1.13
2022-08-09T23:00:37.499Z,1.30
2022-08-09T23:03:12.779Z,1.40
2022-08-09T23:05:40.997Z,1.30
2022-08-09T23:08:31.716Z,1.10
2022-08-09T23:10:59.911Z,1.08
2022-08-09T23:13:27.856Z,1.30
2022-08-09T23:16:02.703Z,1.00
2022-08-09T23:18:32.969Z,1.23
2022-08-09T23:21:00.918Z,1.10
2022-08-09T23:23:29.114Z,1.02
2022-08-09T23:25:57.311Z,1.30
2022-08-09T23:28:25.302Z,1.10
2022-08-09T23:30:53.367Z,1.20
2022-08-09T23:33:21.551Z,0.90
2022-08-09T23:36:05.519Z,1.00
2022-08-09T23:41:03.113Z,1.40
2022-08-09T23:43:31.266Z,0.90
2022-08-09T23:45:59.347Z,0.98
2022-08-09T23:48:27.288Z,1.33
2022-08-09T23:50:56.606Z,1.38
2022-08-09T23:53:24.584Z,0.80
2022-08-09T23:55:57.112Z,1.00
2022-08-09T23:58:29.768Z,1.15
